EWG8DR EDDS-LEPA
Flight info
| Callsign | EWG8DR |
|---|---|
| Flight time | N/A |
| Altitude | 31000 |
| Route | ROTWE7H ROTWE Y126 TUBLO N850 NATOR DCT LUTIX DCT BENOT/N0458F350 DCT NEMOS DCT GEVEA DCT INCUS DCT BALSI DCT RETNO DCT TUPOX DCT MTG DCT DIVKO DCT VATIR DCT PIVUS DCT BODEQ DCT VERSO L129 LUNIK |
| Aircraft | B738/M-SDE2E3FGHIRWXY/LB1 |
Departure
| Time | 2026-05-01 10:41 |
|---|---|
| Airport | Stuttgart Airport (EDDS) |
Arrival
| Time | N/A |
|---|---|
| Airport | Palma de Mallorca Airport (LEPA) |
| Time | Latitude | Longitude | Altitude | Speed | Heading |
|---|---|---|---|---|---|
| 2026-05-01 10:13 | 48.68889 | 9.19433 | 1256 ft | 0 kts | 343° |
| 2026-05-01 10:31 | 48.68873 | 9.19440 | 1282 ft | 2 kts | 345° |
| 2026-05-01 10:32 | 48.68840 | 9.19450 | 1256 ft | 2 kts | 356° |
| 2026-05-01 10:32 | 48.68824 | 9.19448 | 1256 ft | 2 kts | 38° |
| 2026-05-01 10:32 | 48.68816 | 9.19428 | 1256 ft | 0 kts | 72° |
| 2026-05-01 10:35 | 48.68817 | 9.19436 | 1256 ft | 3 kts | 72° |
| 2026-05-01 10:35 | 48.68833 | 9.19511 | 1265 ft | 11 kts | 72° |
| 2026-05-01 10:35 | 48.68855 | 9.19632 | 1260 ft | 12 kts | 75° |
| 2026-05-01 10:36 | 48.68886 | 9.19868 | 1256 ft | 11 kts | 110° |
| 2026-05-01 10:36 | 48.68822 | 9.19927 | 1258 ft | 11 kts | 164° |
| 2026-05-01 10:36 | 48.68750 | 9.19957 | 1258 ft | 11 kts | 164° |
| 2026-05-01 10:37 | 48.68679 | 9.19987 | 1258 ft | 10 kts | 164° |
| 2026-05-01 10:37 | 48.68581 | 9.20052 | 1260 ft | 5 kts | 104° |
| 2026-05-01 10:37 | 48.68590 | 9.20102 | 1260 ft | 5 kts | 72° |
| 2026-05-01 10:38 | 48.68599 | 9.20152 | 1260 ft | 5 kts | 73° |
| 2026-05-01 10:38 | 48.68602 | 9.20168 | 1266 ft | 0 kts | 73° |
| 2026-05-01 10:40 | 48.68649 | 9.20412 | 1263 ft | 62 kts | 75° |
| 2026-05-01 10:40 | 48.68839 | 9.21424 | 1258 ft | 135 kts | 74° |
| 2026-05-01 10:41 | 48.69133 | 9.23030 | 1532 ft | 172 kts | 74° |
| 2026-05-01 10:41 | 48.69485 | 9.24839 | 2444 ft | 184 kts | 75° |
| 2026-05-01 10:41 | 48.70157 | 9.28524 | 4337 ft | 178 kts | 78° |
| 2026-05-01 10:42 | 48.70501 | 9.30352 | 4962 ft | 184 kts | 77° |
| 2026-05-01 10:42 | 48.70861 | 9.32206 | 5505 ft | 193 kts | 77° |
| 2026-05-01 10:42 | 48.71223 | 9.34279 | 5666 ft | 213 kts | 86° |
| 2026-05-01 10:42 | 48.70897 | 9.36505 | 5875 ft | 227 kts | 118° |
| 2026-05-01 10:43 | 48.69804 | 9.38235 | 6413 ft | 235 kts | 147° |
| 2026-05-01 10:43 | 48.68195 | 9.38916 | 6903 ft | 250 kts | 175° |
| 2026-05-01 10:43 | 48.66461 | 9.38371 | 7574 ft | 259 kts | 199° |
| 2026-05-01 10:43 | 48.64879 | 9.37040 | 8252 ft | 268 kts | 219° |
| 2026-05-01 10:44 | 48.63816 | 9.34653 | 8762 ft | 286 kts | 246° |
| 2026-05-01 10:44 | 48.63145 | 9.31752 | 9314 ft | 296 kts | 250° |
| 2026-05-01 10:44 | 48.62477 | 9.28781 | 9998 ft | 302 kts | 249° |
| 2026-05-01 10:44 | 48.61791 | 9.25779 | 10223 ft | 300 kts | 250° |
| 2026-05-01 10:45 | 48.61179 | 9.22695 | 10320 ft | 314 kts | 253° |
| 2026-05-01 10:45 | 48.60613 | 9.19468 | 10530 ft | 325 kts | 254° |
| 2026-05-01 10:45 | 48.60032 | 9.16088 | 10908 ft | 338 kts | 255° |
| 2026-05-01 10:45 | 48.59434 | 9.12625 | 11287 ft | 351 kts | 255° |
| 2026-05-01 10:46 | 48.58799 | 9.08992 | 11675 ft | 364 kts | 255° |
| 2026-05-01 10:46 | 48.58138 | 9.05252 | 12049 ft | 369 kts | 255° |
| 2026-05-01 10:46 | 48.57470 | 9.01506 | 12427 ft | 371 kts | 255° |
| 2026-05-01 10:46 | 48.56795 | 8.97743 | 12793 ft | 370 kts | 255° |
| 2026-05-01 10:47 | 48.56111 | 8.93948 | 13195 ft | 375 kts | 255° |
| 2026-05-01 10:47 | 48.55425 | 8.90163 | 13580 ft | 375 kts | 255° |
| 2026-05-01 10:47 | 48.54732 | 8.86335 | 13978 ft | 379 kts | 255° |
| 2026-05-01 10:47 | 48.54037 | 8.82500 | 14355 ft | 382 kts | 255° |
| 2026-05-01 10:48 | 48.53334 | 8.78637 | 14706 ft | 382 kts | 255° |
| 2026-05-01 10:48 | 48.52625 | 8.74746 | 15083 ft | 387 kts | 255° |
| 2026-05-01 10:48 | 48.51900 | 8.70779 | 15467 ft | 398 kts | 255° |
| 2026-05-01 10:48 | 48.51160 | 8.66738 | 15908 ft | 407 kts | 255° |
| 2026-05-01 10:49 | 48.50410 | 8.62585 | 16425 ft | 414 kts | 255° |
| 2026-05-01 10:49 | 48.49652 | 8.58359 | 16932 ft | 420 kts | 255° |
| 2026-05-01 10:49 | 48.48883 | 8.54088 | 17451 ft | 425 kts | 255° |
| 2026-05-01 10:49 | 48.48097 | 8.49758 | 17973 ft | 430 kts | 254° |
| 2026-05-01 10:50 | 48.46855 | 8.45646 | 18492 ft | 435 kts | 235° |
| 2026-05-01 10:50 | 48.44776 | 8.42342 | 18997 ft | 437 kts | 216° |
| 2026-05-01 10:50 | 48.42147 | 8.40081 | 19474 ft | 436 kts | 198° |
| 2026-05-01 10:50 | 48.39235 | 8.38877 | 20107 ft | 433 kts | 190° |
| 2026-05-01 10:51 | 48.36288 | 8.37976 | 20717 ft | 432 kts | 188° |
| 2026-05-01 10:51 | 48.33329 | 8.37144 | 21342 ft | 431 kts | 188° |
| 2026-05-01 10:51 | 48.31377 | 8.36587 | 21765 ft | 431 kts | 189° |
| 2026-05-01 10:51 | 48.28429 | 8.35710 | 22404 ft | 431 kts | 189° |
| 2026-05-01 10:52 | 48.24511 | 8.34486 | 23293 ft | 429 kts | 190° |
| 2026-05-01 10:52 | 48.22582 | 8.33874 | 23733 ft | 428 kts | 190° |
| 2026-05-01 10:52 | 48.19669 | 8.32940 | 24333 ft | 427 kts | 191° |
| 2026-05-01 10:52 | 48.15956 | 8.31018 | 25093 ft | 427 kts | 204° |
| 2026-05-01 10:53 | 48.14181 | 8.29577 | 25492 ft | 427 kts | 210° |
| 2026-05-01 10:53 | 48.11717 | 8.27221 | 26099 ft | 424 kts | 212° |
| 2026-05-01 10:53 | 48.09261 | 8.24805 | 26711 ft | 421 kts | 212° |
| 2026-05-01 10:53 | 48.06820 | 8.22394 | 27343 ft | 418 kts | 212° |
| 2026-05-01 10:54 | 48.04400 | 8.20016 | 27973 ft | 414 kts | 211° |
| 2026-05-01 10:54 | 48.01992 | 8.17668 | 28634 ft | 410 kts | 211° |
| 2026-05-01 10:54 | 47.99620 | 8.15372 | 29300 ft | 405 kts | 211° |
| 2026-05-01 10:54 | 47.97259 | 8.13098 | 29983 ft | 400 kts | 210° |
| 2026-05-01 10:55 | 47.94933 | 8.10866 | 30631 ft | 395 kts | 210° |
| 2026-05-01 10:55 | 47.92637 | 8.08667 | 31179 ft | 391 kts | 210° |
| 2026-05-01 10:55 | 47.90317 | 8.06452 | 31209 ft | 403 kts | 210° |
| 2026-05-01 10:55 | 47.87920 | 8.04170 | 31237 ft | 414 kts | 210° |
| 2026-05-01 10:56 | 47.85461 | 8.01829 | 31243 ft | 425 kts | 210° |
| 2026-05-01 10:56 | 47.82939 | 7.99429 | 31240 ft | 436 kts | 210° |
| 2026-05-01 10:56 | 47.80352 | 7.96968 | 31239 ft | 446 kts | 210° |
| 2026-05-01 10:57 | 47.75014 | 7.91897 | 31233 ft | 465 kts | 210° |
| 2026-05-01 10:57 | 47.69499 | 7.86670 | 31234 ft | 481 kts | 211° |
| 2026-05-01 10:58 | 47.63771 | 7.81253 | 31232 ft | 495 kts | 211° |
| 2026-05-01 10:58 | 47.57927 | 7.75741 | 31214 ft | 497 kts | 211° |
| 2026-05-01 10:59 | 47.52103 | 7.70262 | 31216 ft | 495 kts | 211° |
| 2026-05-01 10:59 | 47.46447 | 7.64959 | 31219 ft | 494 kts | 210° |
| 2026-05-01 11:00 | 47.40642 | 7.59530 | 31215 ft | 493 kts | 210° |
| 2026-05-01 11:00 | 47.34846 | 7.54124 | 31206 ft | 492 kts | 210° |
| 2026-05-01 11:01 | 47.29101 | 7.48778 | 31184 ft | 491 kts | 211° |
| 2026-05-01 11:01 | 47.23303 | 7.43396 | 31194 ft | 491 kts | 210° |
| 2026-05-01 11:02 | 47.17582 | 7.37881 | 31195 ft | 492 kts | 217° |
| 2026-05-01 11:02 | 47.12858 | 7.30684 | 31199 ft | 495 kts | 232° |
| 2026-05-01 11:03 | 47.08681 | 7.22633 | 31194 ft | 496 kts | 231° |
| 2026-05-01 11:03 | 47.04396 | 7.14697 | 31199 ft | 495 kts | 230° |
| 2026-05-01 11:04 | 47.00074 | 7.06835 | 31214 ft | 494 kts | 230° |
| 2026-05-01 11:04 | 46.95767 | 6.98999 | 31215 ft | 493 kts | 230° |
| 2026-05-01 11:05 | 46.91444 | 6.91242 | 31216 ft | 491 kts | 227° |
| 2026-05-01 11:05 | 46.86348 | 6.84644 | 31222 ft | 488 kts | 217° |
| 2026-05-01 11:06 | 46.81065 | 6.78507 | 31220 ft | 488 kts | 217° |
| 2026-05-01 11:06 | 46.75776 | 6.72316 | 31218 ft | 487 kts | 218° |
| 2026-05-01 11:07 | 46.67881 | 6.62970 | 31212 ft | 487 kts | 218° |
| 2026-05-01 11:07 | 46.62629 | 6.56755 | 31212 ft | 486 kts | 218° |
| 2026-05-01 11:08 | 46.57411 | 6.50602 | 31213 ft | 485 kts | 218° |
| 2026-05-01 11:09 | 46.49549 | 6.41364 | 31208 ft | 483 kts | 218° |
| 2026-05-01 11:09 | 46.44329 | 6.35249 | 31209 ft | 482 kts | 218° |
| 2026-05-01 11:10 | 46.36373 | 6.26398 | 31206 ft | 480 kts | 208° |
| 2026-05-01 11:10 | 46.30205 | 6.22837 | 31228 ft | 477 kts | 197° |
| 2026-05-01 11:11 | 46.23862 | 6.19950 | 31223 ft | 478 kts | 197° |
| 2026-05-01 11:11 | 46.17557 | 6.17044 | 31213 ft | 478 kts | 198° |
| 2026-05-01 11:12 | 46.11222 | 6.14072 | 31213 ft | 478 kts | 198° |
| 2026-05-01 11:12 | 46.04904 | 6.11093 | 31188 ft | 478 kts | 199° |
| 2026-05-01 11:13 | 45.98592 | 6.08123 | 31191 ft | 473 kts | 199° |
| 2026-05-01 11:13 | 45.92425 | 6.05231 | 31188 ft | 461 kts | 199° |
| 2026-05-01 11:14 | 45.86334 | 6.02380 | 31194 ft | 460 kts | 199° |
| 2026-05-01 11:14 | 45.80281 | 5.99553 | 31197 ft | 460 kts | 199° |
| 2026-05-01 11:15 | 45.74180 | 5.96712 | 31189 ft | 460 kts | 200° |
| 2026-05-01 11:15 | 45.68491 | 5.94068 | 31198 ft | 460 kts | 200° |
| 2026-05-01 11:16 | 45.62403 | 5.91245 | 31193 ft | 460 kts | 200° |
| 2026-05-01 11:16 | 45.56317 | 5.88430 | 31190 ft | 459 kts | 200° |
| 2026-05-01 11:17 | 45.50239 | 5.85625 | 31193 ft | 459 kts | 200° |
| 2026-05-01 11:17 | 45.44199 | 5.82844 | 31183 ft | 459 kts | 200° |
| 2026-05-01 11:18 | 45.38130 | 5.80056 | 31192 ft | 457 kts | 199° |
| 2026-05-01 11:18 | 45.32077 | 5.77281 | 31185 ft | 457 kts | 199° |
| 2026-05-01 11:19 | 45.26039 | 5.74519 | 31186 ft | 455 kts | 199° |
| 2026-05-01 11:19 | 45.20006 | 5.71766 | 31192 ft | 455 kts | 199° |
| 2026-05-01 11:20 | 45.13974 | 5.69019 | 31179 ft | 455 kts | 199° |
| 2026-05-01 11:20 | 45.07956 | 5.66285 | 31189 ft | 454 kts | 199° |
| 2026-05-01 11:21 | 45.01937 | 5.63556 | 31184 ft | 454 kts | 199° |
| 2026-05-01 11:21 | 44.95967 | 5.60855 | 31195 ft | 453 kts | 199° |
| 2026-05-01 11:22 | 44.89952 | 5.58141 | 31201 ft | 453 kts | 199° |
| 2026-05-01 11:22 | 44.83929 | 5.55428 | 31128 ft | 454 kts | 199° |
| 2026-05-01 11:23 | 44.77919 | 5.52728 | 31188 ft | 454 kts | 199° |
| 2026-05-01 11:23 | 44.71888 | 5.50023 | 31205 ft | 456 kts | 199° |
| 2026-05-01 11:24 | 44.65857 | 5.47324 | 31203 ft | 458 kts | 199° |
| 2026-05-01 11:25 | 44.56702 | 5.43239 | 31203 ft | 460 kts | 199° |
| 2026-05-01 11:25 | 44.47512 | 5.39153 | 31203 ft | 461 kts | 199° |
| 2026-05-01 11:26 | 44.38367 | 5.35100 | 31191 ft | 461 kts | 199° |